Time;durP1;ratioP1;P1;durP2;ratioP2;P2;SDS_P1;SDS_P2;PMS_P1;PMS_P2;Temp;Humidity;BMP_temperature;BMP_pressure;BME280_temperature;BME280_humidity;BME280_pressure;Samples;Min_cycle;Max_cycle;Signal;HPM_P1;HPM_P2
2022/07/21 00:01:50;;;;;;;3.92;2.70;;;;;;;18.01;50.77;95077.56;5108583;28;20015;-76
2022/07/21 00:04:16;;;;;;;5.32;2.75;;;;;;;17.97;50.91;95084.97;5094671;28;20085;-76
2022/07/21 00:06:42;;;;;;;4.65;2.67;;;;;;;18.03;50.89;95084.31;5093258;28;20024;-76
2022/07/21 00:09:09;;;;;;;5.65;2.55;;;;;;;17.97;51.02;95081.50;5109794;27;20416;-76
2022/07/21 00:11:34;;;;;;;3.83;2.60;;;;;;;18.04;50.90;95085.94;5132979;27;20038;-76
2022/07/21 00:14:00;;;;;;;3.83;2.60;;;;;;;18.01;50.79;95074.94;5132442;27;20039;-76
2022/07/21 00:16:25;;;;;;;5.47;2.70;;;;;;;18.00;51.09;95075.94;5131840;27;20484;-76
2022/07/21 00:18:51;;;;;;;3.88;2.70;;;;;;;17.97;51.39;95074.44;5119718;27;20049;-76
2022/07/21 00:21:16;;;;;;;4.50;2.70;;;;;;;18.00;51.36;95075.94;5116635;27;20409;-76
2022/07/21 00:23:42;;;;;;;3.53;2.90;;;;;;;17.94;51.61;95087.09;5135336;27;20027;-76
2022/07/21 00:26:07;;;;;;;3.85;3.00;;;;;;;17.92;51.92;95086.44;5128144;27;20024;-76
2022/07/21 00:28:33;;;;;;;3.15;2.47;;;;;;;17.91;51.92;95082.97;5114683;27;20499;-76
2022/07/21 00:30:58;;;;;;;4.93;2.85;;;;;;;17.90;51.58;95085.78;5129881;27;20031;-76
2022/07/21 00:33:24;;;;;;;3.97;3.25;;;;;;;17.85;51.36;95084.47;5128732;27;20109;-76
2022/07/21 00:35:49;;;;;;;6.28;3.10;;;;;;;17.86;51.60;95090.56;5125991;27;20053;-76
2022/07/21 00:38:14;;;;;;;4.40;3.10;;;;;;;17.92;51.64;95094.34;5113846;27;20019;-76
2022/07/21 00:40:40;;;;;;;4.20;3.17;;;;;;;17.74;51.28;95071.63;5100222;27;20088;-76
2022/07/21 00:43:05;;;;;;;3.25;2.72;;;;;;;17.99;50.96;95097.94;5123766;27;20027;-76
2022/07/21 00:45:31;;;;;;;7.05;3.08;;;;;;;17.99;51.32;95108.44;5079173;28;20038;-76
2022/07/21 00:47:56;;;;;;;3.55;2.97;;;;;;;18.04;51.46;95104.31;5107529;28;20075;-76
2022/07/21 00:50:22;;;;;;;4.22;3.00;;;;;;;17.98;51.68;95104.19;5096285;28;20049;-76
2022/07/21 00:52:48;;;;;;;3.25;2.90;;;;;;;18.05;51.44;95115.66;5119989;27;20072;-75
2022/07/21 00:55:18;;;;;;;4.20;2.83;;;;;;;18.05;51.29;95094.63;5095455;28;20036;-76
2022/07/21 00:57:44;;;;;;;6.00;3.00;;;;;;;18.13;51.40;95105.13;5109231;27;20032;-76
2022/07/21 01:00:23;;;;;;;3.70;2.70;;;;;;;18.09;51.79;95112.53;5115776;27;20420;-76
2022/07/21 01:02:49;;;;;;;3.25;2.90;;;;;;;17.94;51.63;95106.31;5116447;27;20118;-76
2022/07/21 01:05:15;;;;;;;4.70;2.80;;;;;;;17.75;52.26;95107.44;5118788;27;20039;-76
2022/07/21 01:07:41;;;;;;;3.72;2.78;;;;;;;17.64;52.41;95092.00;5127217;27;20028;-76
2022/07/21 01:10:07;;;;;;;3.25;2.70;;;;;;;17.56;52.74;95089.38;5103093;27;20087;-76
2022/07/21 01:12:32;;;;;;;4.68;3.30;;;;;;;17.51;52.71;95087.22;5114640;27;20036;-76
2022/07/21 01:14:58;;;;;;;3.95;3.10;;;;;;;17.42;53.17;95094.28;5098620;27;20035;-76
2022/07/21 01:17:23;;;;;;;3.95;2.67;;;;;;;17.39;53.50;95093.78;5124269;27;20077;-76
2022/07/21 01:19:49;;;;;;;3.33;2.90;;;;;;;17.41;53.55;95086.53;5115422;27;20100;-76
2022/07/21 01:22:14;;;;;;;3.08;2.75;;;;;;;17.36;53.51;95070.47;5097595;27;20114;-76
2022/07/21 01:24:40;;;;;;;3.40;2.92;;;;;;;17.31;53.84;95070.97;5109342;28;20561;-76
2022/07/21 01:27:05;;;;;;;3.47;2.97;;;;;;;17.30;53.93;95065.84;5118315;27;20027;-76
2022/07/21 01:29:31;;;;;;;3.78;3.10;;;;;;;17.29;54.24;95072.09;5132355;27;20096;-76
2022/07/21 01:31:56;;;;;;;3.50;2.88;;;;;;;17.17;54.66;95067.16;5132820;27;20409;-76
2022/07/21 01:34:22;;;;;;;4.35;2.80;;;;;;;17.10;54.73;95066.16;5123049;27;20560;-76
2022/07/21 01:36:47;;;;;;;3.20;2.65;;;;;;;17.04;54.85;95068.59;5127205;27;20083;-76
2022/07/21 01:41:56;;;;;;;3.17;2.88;;;;;;;17.00;54.78;95064.66;5112578;27;20523;-76
2022/07/21 01:44:22;;;;;;;4.47;2.95;;;;;;;17.05;54.72;95054.50;5113295;27;20039;-76
2022/07/21 01:46:49;;;;;;;3.28;2.95;;;;;;;17.05;54.89;95057.13;5100601;28;20019;-76
2022/07/21 01:49:15;;;;;;;4.25;2.95;;;;;;;17.14;54.85;95064.03;5095296;28;20035;-76
2022/07/21 01:51:41;;;;;;;3.53;2.95;;;;;;;17.01;54.83;95048.75;5112154;28;20122;-76
2022/07/21 01:54:07;;;;;;;3.55;2.80;;;;;;;17.10;54.86;95052.22;5130540;27;20411;-76
2022/07/21 01:56:32;;;;;;;3.63;3.15;;;;;;;17.15;54.61;95060.44;5098116;28;20030;-76
2022/07/21 01:58:58;;;;;;;3.83;2.70;;;;;;;17.12;54.48;95061.56;5113016;27;20224;-76
2022/07/21 02:01:26;;;;;;;5.30;3.33;;;;;;;17.25;53.80;95066.38;5113471;28;20031;-76
2022/07/21 02:03:52;;;;;;;3.00;2.70;;;;;;;17.27;53.75;95064.38;5124900;27;20091;-76
2022/07/21 02:06:17;;;;;;;4.03;2.92;;;;;;;17.29;53.65;95069.47;5131776;27;20458;-76
2022/07/21 02:08:43;;;;;;;3.92;3.17;;;;;;;17.24;53.96;95069.94;5131746;27;20144;-76
2022/07/21 02:11:08;;;;;;;4.25;3.10;;;;;;;17.31;53.77;95060.47;5131858;27;20477;-76
2022/07/21 02:13:34;;;;;;;4.95;2.75;;;;;;;17.32;53.48;95058.66;5130060;27;20081;-76
2022/07/21 02:15:59;;;;;;;3.35;2.90;;;;;;;17.37;53.02;95061.59;5132318;27;20067;-76
2022/07/21 02:18:24;;;;;;;3.75;2.83;;;;;;;17.43;53.11;95060.94;5100476;28;20501;-76
2022/07/21 02:20:50;;;;;;;4.03;2.92;;;;;;;17.31;53.29;95060.47;5126303;27;20038;-76
2022/07/21 02:23:16;;;;;;;2.90;2.60;;;;;;;17.32;53.23;95064.72;5131447;27;20016;-76
2022/07/21 02:25:42;;;;;;;4.82;2.88;;;;;;;17.30;53.31;95064.06;5131629;27;20031;-76
2022/07/21 02:28:07;;;;;;;4.53;2.70;;;;;;;17.32;53.02;95062.09;5123578;27;20019;-76
2022/07/21 02:30:33;;;;;;;3.35;2.30;;;;;;;17.23;52.78;95057.81;5104254;28;20444;-76
2022/07/21 02:32:58;;;;;;;4.15;2.83;;;;;;;17.33;52.91;95063.75;5129461;27;20031;-76
2022/07/21 02:35:24;;;;;;;3.85;2.80;;;;;;;17.33;52.92;95058.50;5129856;27;20087;-76
2022/07/21 02:37:49;;;;;;;4.20;2.75;;;;;;;17.31;53.14;95062.25;5132412;27;20481;-76
2022/07/21 02:40:15;;;;;;;4.00;2.90;;;;;;;17.25;53.46;95055.84;5094398;28;20390;-76
2022/07/21 02:42:40;;;;;;;5.05;2.88;;;;;;;17.23;53.48;95055.19;5099532;27;20416;-77
2022/07/21 02:45:07;;;;;;;3.40;2.90;;;;;;;17.11;54.13;95056.50;5130072;27;20019;-76
2022/07/21 02:47:32;;;;;;;3.65;3.10;;;;;;;17.06;54.34;95053.53;5103632;27;20450;-75
2022/07/21 02:49:58;;;;;;;3.33;2.92;;;;;;;17.11;54.36;95053.88;5107200;28;20039;-76
2022/07/21 02:52:23;;;;;;;3.10;2.80;;;;;;;17.06;54.11;95041.22;5115425;27;20485;-76
2022/07/21 02:54:49;;;;;;;4.75;3.10;;;;;;;16.96;54.45;95054.47;5131302;27;20164;-76
2022/07/21 02:57:14;;;;;;;4.30;3.13;;;;;;;17.02;54.11;95060.06;5118717;27;20023;-76
2022/07/21 02:59:40;;;;;;;3.50;2.85;;;;;;;17.01;54.23;95059.25;5110613;28;20048;-76
2022/07/21 03:02:05;;;;;;;4.07;2.92;;;;;;;16.97;54.46;95055.31;5113388;27;20027;-76
2022/07/21 03:04:30;;;;;;;3.83;3.20;;;;;;;16.95;54.64;95057.28;5131928;27;20031;-76
2022/07/21 03:06:56;;;;;;;3.90;3.22;;;;;;;16.92;54.81;95062.84;5129370;27;20465;-76
2022/07/21 03:09:21;;;;;;;3.60;2.85;;;;;;;16.95;54.64;95054.66;5131414;27;20047;-76
2022/07/21 03:11:47;;;;;;;3.25;2.90;;;;;;;16.96;54.54;95051.84;5097765;28;20028;-76
2022/07/21 03:14:12;;;;;;;3.72;2.90;;;;;;;16.92;54.76;95054.97;5110558;28;20035;-76
2022/07/21 03:16:38;;;;;;;4.40;3.13;;;;;;;16.95;54.73;95065.16;5112755;27;20569;-76
2022/07/21 03:19:03;;;;;;;4.85;2.70;;;;;;;16.96;54.66;95062.34;5107951;27;20431;-76
2022/07/21 03:21:28;;;;;;;4.25;2.92;;;;;;;16.90;55.03;95068.22;5099959;27;20031;-76
2022/07/21 03:23:54;;;;;;;3.53;2.88;;;;;;;16.94;54.86;95069.56;5131791;27;20038;-76
2022/07/21 03:26:19;;;;;;;3.63;2.90;;;;;;;16.91;54.71;95072.53;5123327;27;20042;-76
2022/07/21 03:28:45;;;;;;;7.15;2.97;;;;;;;16.82;55.09;95070.00;5127649;27;20499;-75
2022/07/21 03:31:10;;;;;;;4.20;3.00;;;;;;;16.79;54.74;95071.16;5111085;27;20412;-76
2022/07/21 03:33:36;;;;;;;4.57;3.10;;;;;;;16.88;54.72;95072.00;5129202;27;20166;-76
2022/07/21 03:36:01;;;;;;;4.18;3.08;;;;;;;16.84;55.38;95073.31;5113377;27;20027;-76
2022/07/21 03:38:27;;;;;;;3.38;3.08;;;;;;;16.90;54.86;95072.66;5116723;27;20028;-76
2022/07/21 03:40:52;;;;;;;4.20;3.08;;;;;;;17.00;54.50;95072.53;5115964;27;20022;-76
2022/07/21 03:43:17;;;;;;;4.43;3.17;;;;;;;16.93;54.48;95075.78;5110375;28;20573;-76
2022/07/21 03:45:43;;;;;;;3.22;2.85;;;;;;;17.02;54.35;95074.03;5092740;28;20031;-76
2022/07/21 03:48:09;;;;;;;3.35;3.03;;;;;;;17.06;54.34;95083.22;5111153;27;20038;-76
2022/07/21 03:50:35;;;;;;;6.38;2.90;;;;;;;17.01;54.23;95072.38;5112002;28;20122;-76
2022/07/21 03:53:00;;;;;;;3.53;3.00;;;;;;;17.09;54.20;95079.44;5105398;28;20057;-76
2022/07/21 03:55:26;;;;;;;5.75;3.40;;;;;;;17.04;54.78;95079.09;5111283;28;20469;-76
2022/07/21 03:57:57;;;;;;;4.30;3.15;;;;;;;17.12;54.79;95087.81;5107331;28;20546;-76
2022/07/21 04:00:24;;;;;;;5.40;3.35;;;;;;;17.05;55.16;95081.59;5093155;28;20054;-76
2022/07/21 04:02:50;;;;;;;4.47;3.65;;;;;;;17.20;54.89;95073.91;5116433;28;20135;-76
2022/07/21 04:05:16;;;;;;;4.38;3.05;;;;;;;17.34;54.18;95078.50;5113469;28;20031;-76
2022/07/21 04:07:43;;;;;;;7.13;3.08;;;;;;;17.35;54.11;95074.06;5123400;28;20023;-76
2022/07/21 04:10:09;;;;;;;5.25;3.30;;;;;;;17.94;52.96;95084.47;5109847;28;20501;-76
2022/07/21 04:12:34;;;;;;;3.30;3.00;;;;;;;19.43;48.58;95074.06;5104220;28;20054;-76
2022/07/21 04:15:00;;;;;;;3.67;3.30;;;;;;;21.33;44.01;95083.34;5109985;28;20040;-76
2022/07/21 04:17:25;;;;;;;4.93;3.08;;;;;;;24.46;36.91;95083.16;5094257;28;20062;-76
2022/07/21 04:19:51;;;;;;;6.88;3.30;;;;;;;26.34;33.50;95059.91;5124388;28;20035;-76
2022/07/21 04:22:17;;;;;;;3.55;3.00;;;;;;;27.53;31.39;95068.44;5114435;28;20042;-76
2022/07/21 04:24:42;;;;;;;4.43;2.60;;;;;;;28.49;29.72;95071.91;5111175;28;20039;-77
2022/07/21 04:27:08;;;;;;;3.90;3.10;;;;;;;29.07;28.79;95081.75;5123905;28;20416;-76
2022/07/21 04:29:33;;;;;;;3.65;3.00;;;;;;;29.89;27.79;95066.47;5129806;27;20043;-77
2022/07/21 04:31:59;;;;;;;5.25;3.33;;;;;;;30.86;25.85;95066.13;5125235;28;20024;-76
2022/07/21 04:34:24;;;;;;;4.00;3.20;;;;;;;31.29;25.55;95071.78;5099784;28;20454;-77
2022/07/21 04:36:50;;;;;;;4.63;3.30;;;;;;;31.43;24.95;95062.31;5131118;27;20034;-77
2022/07/21 04:39:15;;;;;;;5.72;3.35;;;;;;;31.16;25.37;95073.75;5129850;28;20030;-77
2022/07/21 04:41:41;;;;;;;5.93;3.15;;;;;;;32.41;23.96;95077.47;5129504;27;20023;-77
2022/07/21 04:44:06;;;;;;;5.55;3.72;;;;;;;32.61;23.80;95083.00;5112819;28;20046;-77
2022/07/21 04:46:32;;;;;;;5.30;3.40;;;;;;;33.61;22.81;95081.38;5112570;28;20023;-77
2022/07/21 04:48:57;;;;;;;6.65;4.30;;;;;;;33.98;21.91;95083.84;5123417;27;20080;-77
2022/07/21 04:51:23;;;;;;;5.40;4.00;;;;;;;34.33;21.71;95080.41;5120003;28;20028;-78
2022/07/21 04:53:48;;;;;;;14.18;4.00;;;;;;;34.48;21.08;95082.28;5109098;28;20040;-78
2022/07/21 04:56:14;;;;;;;6.95;4.38;;;;;;;34.37;21.36;95083.38;5123240;27;20084;-78
2022/07/21 04:58:39;;;;;;;6.00;3.90;;;;;;;33.42;22.20;95083.69;5112992;28;20032;-77
2022/07/21 05:01:04;;;;;;;6.13;3.60;;;;;;;29.77;26.78;95088.75;5120949;27;20036;-77
2022/07/21 05:03:30;;;;;;;7.28;3.80;;;;;;;28.30;29.26;95089.88;5131687;27;20035;-77
2022/07/21 05:05:55;;;;;;;6.78;3.90;;;;;;;26.96;32.10;95090.03;5133099;27;20084;-77
2022/07/21 05:08:21;;;;;;;6.72;4.35;;;;;;;26.23;32.89;95088.88;5115475;27;20035;-77
2022/07/21 05:10:46;;;;;;;6.53;3.92;;;;;;;25.31;34.10;95093.72;5129560;27;20224;-77
2022/07/21 05:13:12;;;;;;;5.38;3.88;;;;;;;25.53;34.68;95096.09;5115200;27;20038;-77
2022/07/21 05:15:37;;;;;;;5.63;3.70;;;;;;;24.77;35.60;95091.44;5128754;27;20020;-77
2022/07/21 05:18:03;;;;;;;7.03;3.65;;;;;;;24.43;36.26;95088.88;5119759;27;20027;-76
2022/07/21 05:20:28;;;;;;;5.72;3.70;;;;;;;24.30;36.58;95086.19;5125030;27;20020;-77
2022/07/21 05:22:53;;;;;;;7.38;3.60;;;;;;;24.41;35.95;95082.91;5114513;27;20023;-76
2022/07/21 05:25:19;;;;;;;7.70;3.83;;;;;;;24.25;36.58;95085.97;5124542;27;20092;-77
2022/07/21 05:27:44;;;;;;;5.90;3.55;;;;;;;24.26;37.47;95084.94;5133057;27;20027;-76
2022/07/21 05:30:10;;;;;;;5.70;3.40;;;;;;;24.38;36.35;95078.00;5112034;28;20042;-77
2022/07/21 05:32:36;;;;;;;7.43;3.60;;;;;;;24.29;36.48;95082.72;5120370;27;20027;-76
2022/07/21 05:35:02;;;;;;;9.55;3.63;;;;;;;24.33;37.38;95083.13;5116114;27;20118;-76
2022/07/21 05:37:27;;;;;;;9.70;3.65;;;;;;;24.14;37.21;95091.91;5104223;28;20035;-77
2022/07/21 05:39:53;;;;;;;8.20;3.58;;;;;;;24.03;37.76;95086.19;5115764;27;20028;-76
2022/07/21 05:42:18;;;;;;;11.98;4.43;;;;;;;23.95;38.20;95091.69;5133059;27;20106;-76
2022/07/21 05:44:44;;;;;;;8.82;4.00;;;;;;;24.04;38.26;95093.13;5124979;27;20496;-76
2022/07/21 05:47:09;;;;;;;7.50;3.55;;;;;;;24.11;38.56;95097.63;5132890;27;20388;-76
2022/07/21 05:49:35;;;;;;;12.57;4.10;;;;;;;24.30;38.11;95091.50;5115296;27;20039;-76
2022/07/21 05:52:00;;;;;;;8.07;3.85;;;;;;;23.97;38.63;95079.03;5132698;27;20022;-76
2022/07/21 05:54:25;;;;;;;9.82;3.70;;;;;;;24.03;38.66;95094.13;5132554;27;20039;-76
2022/07/21 05:56:51;;;;;;;10.95;3.40;;;;;;;23.88;39.36;95101.50;5133718;27;20446;-76
2022/07/21 05:59:16;;;;;;;7.63;3.63;;;;;;;23.56;39.91;95066.72;5133718;27;20059;-76
2022/07/21 06:01:42;;;;;;;8.75;3.40;;;;;;;23.79;39.97;95084.97;5134033;27;20030;-76
2022/07/21 06:04:07;;;;;;;5.28;3.30;;;;;;;23.60;40.53;95091.00;5133806;27;20039;-76
2022/07/21 06:06:33;;;;;;;6.80;3.67;;;;;;;23.61;41.01;95087.34;5133932;27;20072;-76
2022/07/21 06:08:59;;;;;;;6.68;3.25;;;;;;;23.74;39.62;95086.59;5116386;27;20031;-76
2022/07/21 06:11:24;;;;;;;7.80;3.72;;;;;;;23.72;39.95;95080.66;5123182;27;20027;-75
2022/07/21 06:13:50;;;;;;;5.35;3.25;;;;;;;23.91;39.41;95093.13;5119050;27;20034;-76
2022/07/21 06:16:15;;;;;;;7.30;3.50;;;;;;;23.70;39.88;95090.59;5124790;27;20020;-76
2022/07/21 06:18:40;;;;;;;8.73;3.70;;;;;;;23.77;39.90;95088.84;5133424;27;20035;-78
2022/07/21 06:21:06;;;;;;;7.85;3.80;;;;;;;23.88;39.66;95082.13;5123440;27;20443;-76
2022/07/21 06:23:31;;;;;;;6.22;3.60;;;;;;;23.96;39.21;95082.72;5113747;27;20036;-78
2022/07/21 06:25:57;;;;;;;12.07;4.00;;;;;;;24.19;39.72;95084.16;5095149;28;20126;-77
2022/07/21 06:28:22;;;;;;;5.82;3.63;;;;;;;24.27;39.16;95079.44;5112292;27;20493;-77
2022/07/21 06:30:48;;;;;;;7.38;3.92;;;;;;;24.42;38.85;95087.19;5123310;27;20092;-77
2022/07/21 06:33:13;;;;;;;5.18;3.40;;;;;;;24.60;37.87;95086.59;5109110;27;20034;-77
2022/07/21 06:35:39;;;;;;;8.82;3.63;;;;;;;24.67;37.84;95083.91;5120815;27;20046;-77
2022/07/21 06:38:05;;;;;;;5.45;3.78;;;;;;;24.45;38.29;95070.88;5116438;27;20493;-77
2022/07/21 06:40:30;;;;;;;8.70;3.60;;;;;;;24.47;38.38;95078.66;5109154;27;20031;-77
2022/07/21 06:42:56;;;;;;;8.90;3.60;;;;;;;24.59;38.50;95074.31;5126170;27;20035;-77
2022/07/21 06:45:22;;;;;;;5.15;3.63;;;;;;;24.70;38.30;95071.03;5126454;27;20478;-77
2022/07/21 06:47:48;;;;;;;5.93;3.63;;;;;;;24.81;38.59;95066.91;5125596;27;20027;-77
2022/07/21 06:50:14;;;;;;;5.88;3.50;;;;;;;25.05;38.34;95070.72;5110803;27;20062;-77
2022/07/21 06:52:39;;;;;;;9.32;3.50;;;;;;;24.97;37.40;95062.97;5093028;27;20043;-77
2022/07/21 06:55:06;;;;;;;10.52;3.50;;;;;;;25.14;37.16;95071.28;5106556;27;20032;-77
2022/07/21 06:57:32;;;;;;;6.25;3.38;;;;;;;25.31;37.43;95069.81;5092629;27;20519;-77
2022/07/21 06:59:57;;;;;;;9.52;3.30;;;;;;;25.52;36.75;95063.38;5121943;27;20059;-77
2022/07/21 07:02:23;;;;;;;8.13;3.72;;;;;;;25.66;35.99;95061.44;5105819;28;20027;-77
2022/07/21 07:04:48;;;;;;;6.32;3.38;;;;;;;25.66;35.84;95058.78;5123650;27;20500;-77
2022/07/21 07:07:14;;;;;;;8.25;3.70;;;;;;;25.85;35.77;95062.34;5130533;27;20098;-77
2022/07/21 07:09:40;;;;;;;8.77;3.53;;;;;;;25.61;35.96;95053.28;5128028;27;20412;-77
2022/07/21 07:12:08;;;;;;;7.43;3.55;;;;;;;25.71;36.42;95056.25;5121272;27;20023;-77
2022/07/21 07:14:34;;;;;;;5.75;3.45;;;;;;;25.82;35.79;95055.56;5106922;27;20028;-77
2022/07/21 07:17:00;;;;;;;5.20;3.40;;;;;;;25.86;36.00;95053.34;5108937;27;20035;-77
2022/07/21 07:19:25;;;;;;;7.82;3.50;;;;;;;26.02;36.26;95051.97;5117046;27;20035;-77
2022/07/21 07:21:51;;;;;;;8.40;3.90;;;;;;;26.20;35.37;95054.69;5103023;27;20027;-77
2022/07/21 07:24:16;;;;;;;8.05;3.53;;;;;;;26.32;35.87;95049.47;5128877;27;20430;-77
2022/07/21 07:26:43;;;;;;;7.65;3.72;;;;;;;26.43;35.50;95032.75;5121535;27;20023;-78
2022/07/21 07:29:08;;;;;;;7.25;3.33;;;;;;;26.70;35.66;95040.53;5114979;27;20174;-77
2022/07/21 07:31:34;;;;;;;6.95;3.72;;;;;;;26.70;34.32;95053.84;5107925;28;20148;-78
2022/07/21 07:33:59;;;;;;;6.10;3.47;;;;;;;26.48;34.77;95048.09;5123138;27;20484;-78
2022/07/21 07:36:25;;;;;;;9.65;3.78;;;;;;;26.62;35.34;95046.94;5127593;27;20023;-77
2022/07/21 07:38:54;;;;;;;5.22;3.38;;;;;;;26.74;34.88;95039.88;5106842;27;20026;-78
2022/07/21 07:41:20;;;;;;;5.97;3.40;;;;;;;26.93;34.79;95030.00;5095074;28;20042;-77
2022/07/21 07:43:45;;;;;;;6.25;3.47;;;;;;;27.22;34.84;95034.78;5108256;28;20035;-77
2022/07/21 07:46:12;;;;;;;7.25;3.88;;;;;;;27.42;34.40;95027.34;5120732;27;20481;-77
2022/07/21 07:48:38;;;;;;;6.10;3.88;;;;;;;27.60;33.62;95034.47;5125365;27;20035;-77
2022/07/21 07:51:03;;;;;;;9.20;3.50;;;;;;;27.53;32.79;95026.56;5122306;28;20027;-78
2022/07/21 07:53:29;;;;;;;9.43;3.90;;;;;;;27.52;33.10;95027.59;5117510;27;20038;-77
2022/07/21 07:55:54;;;;;;;6.55;3.63;;;;;;;27.68;32.61;95022.66;5107999;28;21184;-78
2022/07/21 07:58:20;;;;;;;6.78;3.40;;;;;;;27.67;32.75;95021.84;5101616;28;20062;-77
2022/07/21 08:00:45;;;;;;;8.50;3.92;;;;;;;27.85;32.92;95023.66;5110807;28;20470;-78
2022/07/21 08:03:11;;;;;;;9.60;3.58;;;;;;;27.78;31.91;95012.25;5127275;27;20447;-78
2022/07/21 08:05:36;;;;;;;10.60;3.42;;;;;;;27.95;33.70;95018.56;5109859;28;20027;-77
2022/07/21 08:08:02;;;;;;;11.82;4.00;;;;;;;28.19;31.77;95014.03;5120424;28;20023;-77
2022/07/21 08:10:27;;;;;;;7.97;3.83;;;;;;;28.33;31.57;95014.63;5126816;28;20042;-78
2022/07/21 08:12:53;;;;;;;9.55;3.67;;;;;;;28.47;32.43;95004.53;5129440;28;20107;-77
2022/07/21 08:15:18;;;;;;;6.60;3.72;;;;;;;28.65;31.74;94998.25;5100819;28;20043;-77
2022/07/21 08:17:44;;;;;;;9.55;3.30;;;;;;;28.71;31.65;95006.13;5119186;28;20512;-77
2022/07/21 08:20:10;;;;;;;5.10;3.40;;;;;;;28.85;31.28;94990.66;5116524;28;20031;-77
2022/07/21 08:22:35;;;;;;;7.40;3.35;;;;;;;28.95;32.34;94996.22;5123579;28;20110;-77
2022/07/21 08:25:01;;;;;;;7.60;3.45;;;;;;;29.22;32.14;94989.50;5124730;27;20035;-77
2022/07/21 08:27:26;;;;;;;16.70;3.70;;;;;;;29.35;31.08;94979.34;5127662;28;20035;-77
2022/07/21 08:29:55;;;;;;;7.20;3.22;;;;;;;29.55;30.99;94980.75;5123025;28;20035;-77
2022/07/21 08:32:20;;;;;;;7.60;3.30;;;;;;;29.69;30.69;94984.75;5111231;27;20117;-77
2022/07/21 08:34:46;;;;;;;6.53;3.05;;;;;;;29.76;30.10;94981.94;5110315;28;20034;-77
2022/07/21 08:37:11;;;;;;;4.55;2.78;;;;;;;29.94;29.28;94986.22;5133045;27;20023;-77
2022/07/21 08:39:37;;;;;;;5.32;2.90;;;;;;;30.05;29.07;94996.03;5131503;27;20035;-77
2022/07/21 08:42:04;;;;;;;4.55;2.50;;;;;;;30.10;28.52;94985.41;5114891;27;20042;-76
2022/07/21 08:44:29;;;;;;;6.65;3.00;;;;;;;30.20;28.63;94977.53;5121401;27;20023;-77
2022/07/21 08:46:55;;;;;;;7.47;3.08;;;;;;;30.22;28.27;94979.97;5108978;27;20040;-75
2022/07/21 08:49:22;;;;;;;6.57;3.30;;;;;;;30.22;28.61;94980.78;5092072;27;20032;-77
2022/07/21 08:51:48;;;;;;;5.00;2.60;;;;;;;30.26;27.76;94981.13;5108121;27;20389;-76
2022/07/21 08:54:13;;;;;;;6.10;3.03;;;;;;;30.34;27.82;94979.88;5089839;27;20031;-77
2022/07/21 08:56:39;;;;;;;3.35;2.58;;;;;;;30.45;28.40;94978.97;5120597;27;20054;-77
2022/07/21 08:59:05;;;;;;;4.00;2.80;;;;;;;30.53;28.11;94973.16;5104400;27;20059;-78
2022/07/21 09:01:31;;;;;;;7.32;2.75;;;;;;;30.62;27.54;94970.88;5125823;27;20035;-77
2022/07/21 09:04:20;;;;;;;3.80;2.88;;;;;;;30.56;27.12;94971.88;5122376;27;20034;-78
2022/07/21 09:06:56;;;;;;;6.70;2.90;;;;;;;30.60;27.26;94964.97;5124486;27;20027;-77
2022/07/21 09:09:22;;;;;;;4.35;3.10;;;;;;;30.57;27.84;94962.78;5104187;28;20079;-76
2022/07/21 09:11:47;;;;;;;4.00;2.97;;;;;;;30.60;26.84;94956.94;5107249;27;20500;-77
2022/07/21 09:14:18;;;;;;;5.35;2.83;;;;;;;30.67;27.98;94962.91;5107330;27;20481;-77
2022/07/21 09:16:45;;;;;;;6.57;2.90;;;;;;;30.68;27.26;94957.31;5117829;27;20031;-78
2022/07/21 09:19:22;;;;;;;5.15;2.75;;;;;;;30.88;26.60;94951.41;5102753;27;20492;-78
2022/07/21 09:21:49;;;;;;;6.57;3.20;;;;;;;30.85;26.11;94935.00;5110051;27;20031;-77
2022/07/21 09:24:19;;;;;;;4.85;2.97;;;;;;;31.03;27.01;94956.13;5111629;27;20034;-77
2022/07/21 09:27:12;;;;;;;7.93;2.80;;;;;;;31.03;27.29;94950.75;5133834;27;20465;-78
2022/07/21 09:29:44;;;;;;;6.28;3.00;;;;;;;31.13;26.86;94950.88;5114379;27;20106;-77
2022/07/21 09:32:25;;;;;;;6.40;2.72;;;;;;;31.17;26.16;94953.84;5131265;27;20504;-77
2022/07/21 09:35:03;;;;;;;5.35;3.05;;;;;;;30.96;25.19;94936.75;5130019;27;20426;-77
2022/07/21 09:37:29;;;;;;;6.03;3.08;;;;;;;31.01;26.96;94934.13;5111853;27;20064;-77
2022/07/21 09:39:55;;;;;;;5.75;2.85;;;;;;;31.22;26.50;94953.09;5129865;27;20035;-77
2022/07/21 09:42:31;;;;;;;7.20;2.83;;;;;;;31.29;26.14;94948.34;5131889;27;20492;-77
2022/07/21 09:45:00;;;;;;;4.05;3.00;;;;;;;31.28;25.32;94946.72;5126939;27;20469;-77
2022/07/21 09:47:27;;;;;;;5.65;2.70;;;;;;;31.25;24.93;94942.66;5087341;28;20123;-77
2022/07/21 09:49:54;;;;;;;5.53;2.92;;;;;;;31.32;24.27;94948.66;5113763;27;20120;-77
2022/07/21 09:52:29;;;;;;;6.68;2.97;;;;;;;31.41;25.14;94940.97;5115562;27;20113;-76
2022/07/21 09:54:56;;;;;;;7.18;3.20;;;;;;;31.40;23.98;94936.69;5131750;27;20027;-77
2022/07/21 09:57:22;;;;;;;7.97;3.00;;;;;;;31.23;24.68;94938.59;5125327;27;20030;-76
2022/07/21 09:59:48;;;;;;;4.35;3.20;;;;;;;31.36;24.52;94935.56;5130672;27;20055;-77
2022/07/21 10:02:26;;;;;;;3.95;3.00;;;;;;;31.45;24.78;94936.72;5105846;27;20027;-77
2022/07/21 10:04:59;;;;;;;4.13;2.72;;;;;;;31.52;25.09;94937.31;5114214;27;20050;-77
2022/07/21 10:07:28;;;;;;;4.22;2.88;;;;;;;31.52;24.06;94923.91;5128695;27;20020;-77
2022/07/21 10:09:55;;;;;;;6.22;2.70;;;;;;;31.55;25.53;94931.44;5122307;27;20488;-77
2022/07/21 10:12:23;;;;;;;3.60;2.80;;;;;;;31.72;24.95;94935.88;5107383;27;20070;-77
2022/07/21 10:14:48;;;;;;;5.47;2.90;;;;;;;31.79;24.21;94925.72;5121597;27;20132;-77
2022/07/21 10:17:15;;;;;;;7.15;2.67;;;;;;;31.89;23.59;94927.66;5129512;27;20510;-78
2022/07/21 10:20:04;;;;;;;3.75;2.83;;;;;;;31.90;23.87;94922.06;5109687;27;20075;-78
2022/07/21 10:22:34;;;;;;;3.40;2.30;;;;;;;31.97;23.85;94911.91;5121431;27;20027;-77
2022/07/21 10:25:00;;;;;;;5.47;2.78;;;;;;;32.04;23.98;94922.44;5107319;27;20062;-77
2022/07/21 10:27:26;;;;;;;4.10;2.65;;;;;;;32.10;24.21;94921.41;5132505;27;20488;-76
2022/07/21 10:30:00;;;;;;;5.10;2.42;;;;;;;32.07;23.00;94923.78;5093602;27;20134;-77
2022/07/21 10:32:37;;;;;;;7.75;2.72;;;;;;;32.08;22.95;94922.72;5126763;27;20071;-78
2022/07/21 10:35:31;;;;;;;2.72;2.40;;;;;;;32.14;23.00;94913.63;5096298;27;20477;-77
2022/07/21 10:37:57;;;;;;;3.58;2.63;;;;;;;32.16;22.61;94915.00;5117342;27;20028;-77
2022/07/21 10:40:23;;;;;;;5.47;2.70;;;;;;;32.17;23.05;94910.41;5112156;27;20034;-77
2022/07/21 10:43:09;;;;;;;3.97;2.80;;;;;;;32.17;23.69;94905.84;5122450;27;20584;-78
2022/07/21 10:45:36;;;;;;;3.60;2.58;;;;;;;32.22;23.03;94908.56;5110634;27;20452;-77
2022/07/21 10:48:02;;;;;;;5.78;2.75;;;;;;;32.26;22.87;94895.41;5133956;27;20023;-78
2022/07/21 10:50:41;;;;;;;4.28;2.50;;;;;;;32.27;23.49;94897.06;5106219;27;20035;-77
2022/07/21 10:53:13;;;;;;;4.97;3.03;;;;;;;32.33;23.81;94896.00;5125050;27;20066;-77
2022/07/21 10:55:38;;;;;;;4.63;3.00;;;;;;;32.30;23.91;94898.41;5128203;27;20560;-78
2022/07/21 10:58:22;;;;;;;4.75;2.90;;;;;;;32.31;23.57;94889.25;5109351;27;20023;-77
2022/07/21 11:01:20;;;;;;;4.03;2.67;;;;;;;32.29;23.47;94889.53;5118129;27;20051;-77
2022/07/21 11:03:46;;;;;;;4.30;2.60;;;;;;;32.28;24.05;94867.22;5122644;27;20043;-78
2022/07/21 11:06:27;;;;;;;7.10;3.40;;;;;;;32.36;24.24;94875.84;5127494;27;20085;-77
2022/07/21 11:09:06;;;;;;;5.55;2.83;;;;;;;32.41;24.40;94875.88;5124583;27;20056;-78
2022/07/21 11:11:51;;;;;;;3.95;2.78;;;;;;;32.43;24.47;94871.88;5124073;27;20023;-77
2022/07/21 11:14:18;;;;;;;4.05;3.15;;;;;;;32.44;23.93;94861.91;5127785;27;20031;-78
2022/07/21 11:16:52;;;;;;;4.43;2.65;;;;;;;32.52;23.26;94857.97;5122469;27;20062;-78
2022/07/21 11:19:37;;;;;;;5.93;2.70;;;;;;;32.53;23.63;94860.38;5128314;27;20442;-78
2022/07/21 11:22:22;;;;;;;4.65;2.83;;;;;;;32.52;23.46;94858.75;5121378;27;20023;-78
2022/07/21 11:24:48;;;;;;;4.28;2.70;;;;;;;32.54;22.69;94862.00;5119122;27;20152;-78
2022/07/21 11:27:15;;;;;;;5.03;2.90;;;;;;;32.52;23.06;94868.72;5120838;27;20034;-78
2022/07/21 11:29:42;;;;;;;3.85;3.10;;;;;;;32.47;23.88;94862.22;5126330;27;20506;-78
2022/07/21 11:32:08;;;;;;;5.20;2.88;;;;;;;32.47;22.90;94858.72;5111994;27;20024;-78
2022/07/21 11:34:40;;;;;;;4.90;3.10;;;;;;;32.47;23.05;94864.91;5092484;28;20020;-78
2022/07/21 11:37:06;;;;;;;5.45;3.15;;;;;;;32.47;22.90;94853.34;5121422;27;20027;-78